Time;durP1;ratioP1;P1;durP2;ratioP2;P2;SDS_P1;SDS_P2;PMS_P1;PMS_P2;Temp;Humidity;BMP_temperature;BMP_pressure;BME280_temperature;BME280_humidity;BME280_pressure;Samples;Min_cycle;Max_cycle;Signal;HPM_P1;HPM_P2
2022/07/05 00:00:00;;;;;;;10.97;2.90;;;;;;;13.69;100.00;101418.13;5023265;28;20037;-73
2022/07/05 00:02:25;;;;;;;9.67;3.37;;;;;;;13.71;100.00;101412.59;5023531;28;20497;-73
2022/07/05 00:04:51;;;;;;;7.60;2.30;;;;;;;13.73;100.00;101410.59;5023790;28;20099;-71
2022/07/05 00:07:17;;;;;;;9.50;2.60;;;;;;;13.67;100.00;101411.25;5023559;28;20035;-73
2022/07/05 00:09:43;;;;;;;;;;;;;;;13.72;100.00;101414.31;5023613;28;20045;-71
2022/07/05 00:12:09;;;;;;;5.05;2.10;;;;;;;13.67;100.00;101411.25;5006936;28;20192;-72
2022/07/05 00:14:35;;;;;;;7.55;2.80;;;;;;;13.61;100.00;101406.56;5024636;28;20025;-73
2022/07/05 00:17:03;;;;;;;10.25;3.20;;;;;;;13.61;100.00;101420.00;5024973;28;20490;-73
2022/07/05 00:19:28;;;;;;;6.80;2.80;;;;;;;13.58;100.00;101412.25;5024536;28;20127;-72
2022/07/05 00:21:54;;;;;;;7.60;2.57;;;;;;;13.65;100.00;101407.91;5023016;28;20200;-73
2022/07/05 00:24:19;;;;;;;5.80;2.57;;;;;;;13.63;100.00;101399.19;5023616;28;20737;-72
2022/07/05 00:26:45;;;;;;;9.77;2.70;;;;;;;13.68;100.00;101407.59;5025274;28;20029;-73
2022/07/05 00:29:10;;;;;;;8.13;3.40;;;;;;;13.70;100.00;101403.72;5023589;28;20048;-72
2022/07/05 00:31:36;;;;;;;12.83;2.60;;;;;;;13.73;100.00;101406.06;5023555;28;20032;-71
2022/07/05 00:34:01;;;;;;;8.35;2.40;;;;;;;13.78;100.00;101408.25;5007814;28;20115;-73
2022/07/05 00:36:26;;;;;;;9.30;2.37;;;;;;;13.85;100.00;101419.16;5024764;28;20025;-73
2022/07/05 00:38:52;;;;;;;7.63;2.97;;;;;;;13.86;100.00;101404.72;5025120;28;20555;-73
2022/07/05 00:41:18;;;;;;;10.17;3.30;;;;;;;13.88;100.00;101390.16;5023147;28;20510;-71
2022/07/05 00:44:02;;;;;;;11.77;2.73;;;;;;;13.88;100.00;101392.84;5023548;28;20022;-71
2022/07/05 00:46:28;;;;;;;9.15;2.95;;;;;;;13.97;100.00;101408.91;5024754;28;20072;-72
2022/07/05 00:48:54;;;;;;;5.82;2.42;;;;;;;13.97;100.00;101406.22;5022985;28;20108;-71
2022/07/05 00:51:21;;;;;;;10.98;2.42;;;;;;;14.00;100.00;101412.13;5025523;28;20048;-73
2022/07/05 00:53:46;;;;;;;10.40;3.22;;;;;;;13.95;100.00;101409.06;5026777;28;20017;-72
2022/07/05 00:56:13;;;;;;;6.50;2.67;;;;;;;13.97;100.00;101407.06;5028145;28;20390;-72
2022/07/05 00:58:38;;;;;;;;;;;;;;;13.98;100.00;101408.75;5027072;28;20032;-71
2022/07/05 01:01:05;;;;;;;;;;;;;;;13.98;100.00;101407.91;5028135;28;20007;-72
2022/07/05 01:03:31;;;;;;;6.38;2.70;;;;;;;14.04;100.00;101408.06;5026453;28;19913;-72
2022/07/05 01:05:58;;;;;;;;;;;;;;;13.98;100.00;101415.94;5027103;28;20755;-73
2022/07/05 01:08:24;;;;;;;5.10;2.67;;;;;;;13.99;100.00;101417.66;5026464;28;20433;-73
2022/07/05 01:10:50;;;;;;;15.85;4.72;;;;;;;13.98;100.00;101413.28;5023277;28;20029;-73
2022/07/05 01:13:16;;;;;;;10.93;3.67;;;;;;;14.06;100.00;101418.66;5039904;28;20079;-72
2022/07/05 01:15:42;;;;;;;6.97;2.80;;;;;;;14.09;100.00;101420.97;5031348;28;20029;-73
2022/07/05 01:18:08;;;;;;;8.70;3.60;;;;;;;14.05;100.00;101417.81;5026153;28;20033;-73
2022/07/05 01:20:34;;;;;;;7.50;2.70;;;;;;;14.06;100.00;101413.28;5026046;28;20064;-73
2022/07/05 01:23:01;;;;;;;;;;;;;;;14.12;100.00;101410.75;5026285;28;20124;-72
2022/07/05 01:25:29;;;;;;;5.95;2.80;;;;;;;14.13;100.00;101393.63;5026378;28;20378;-72
2022/07/05 01:27:56;;;;;;;6.32;2.60;;;;;;;14.11;100.00;101392.13;5027637;28;20083;-73
2022/07/05 01:30:22;;;;;;;11.43;3.28;;;;;;;14.04;100.00;101389.28;5025503;28;20037;-73
2022/07/05 01:32:48;;;;;;;10.70;2.97;;;;;;;14.04;100.00;101399.19;5026402;28;20482;-72
2022/07/05 01:35:14;;;;;;;8.15;3.25;;;;;;;13.98;100.00;101400.72;5009427;28;20164;-71
2022/07/05 01:37:40;;;;;;;5.57;2.80;;;;;;;14.03;100.00;101390.28;5026233;28;20112;-73
2022/07/05 01:40:07;;;;;;;9.40;2.83;;;;;;;14.02;100.00;101393.97;5025577;28;20175;-72
2022/07/05 01:42:33;;;;;;;8.70;3.03;;;;;;;14.00;100.00;101395.16;5027271;28;20025;-72
2022/07/05 01:44:59;;;;;;;10.23;3.05;;;;;;;13.95;100.00;101392.97;5026764;28;20497;-73
2022/07/05 01:47:24;;;;;;;4.75;2.67;;;;;;;13.85;100.00;101392.31;5025721;28;20033;-73
2022/07/05 01:49:53;;;;;;;4.30;2.70;;;;;;;13.78;100.00;101399.38;5026693;28;20109;-72
2022/07/05 01:52:21;;;;;;;7.80;2.88;;;;;;;13.67;100.00;101412.13;5024403;28;20120;-73
2022/07/05 01:54:47;;;;;;;6.35;3.25;;;;;;;13.70;100.00;101409.09;5008978;28;20034;-73
2022/07/05 01:57:12;;;;;;;3.85;2.72;;;;;;;13.61;100.00;101414.63;5026732;28;20025;-72
2022/07/05 01:59:38;;;;;;;9.52;2.80;;;;;;;13.58;100.00;101415.78;5025107;28;20072;-73
2022/07/05 02:02:05;;;;;;;14.27;3.67;;;;;;;13.48;100.00;101407.88;5025176;28;20128;-73
2022/07/05 02:04:32;;;;;;;8.82;3.20;;;;;;;13.45;100.00;101424.31;5035471;28;20029;-72
2022/07/05 02:06:58;;;;;;;6.53;2.97;;;;;;;13.32;100.00;101425.78;5009209;28;20233;-72
2022/07/05 02:09:24;;;;;;;9.00;3.05;;;;;;;13.31;100.00;101427.63;5025098;28;20044;-72
2022/07/05 02:11:50;;;;;;;5.97;3.28;;;;;;;13.35;100.00;101428.16;5024821;28;20052;-73
2022/07/05 02:14:16;;;;;;;6.40;3.50;;;;;;;13.30;100.00;101421.44;5024981;28;20501;-73
2022/07/05 02:16:43;;;;;;;5.40;3.22;;;;;;;13.14;100.00;101407.13;5008940;28;20047;-73
2022/07/05 02:19:08;;;;;;;10.52;3.30;;;;;;;13.07;100.00;101423.84;5024916;28;20037;-72
2022/07/05 02:21:37;;;;;;;14.93;3.35;;;;;;;13.01;100.00;101432.53;5008967;28;20029;-72
2022/07/05 02:24:07;;;;;;;6.47;3.20;;;;;;;12.98;100.00;101432.03;5024310;28;20048;-72
2022/07/05 02:26:38;;;;;;;7.10;2.83;;;;;;;13.05;100.00;101431.22;5009427;28;20505;-73
2022/07/05 02:29:04;;;;;;;5.22;3.17;;;;;;;12.97;100.00;101424.97;5023586;28;20091;-72
2022/07/05 02:31:31;;;;;;;8.38;3.38;;;;;;;12.89;100.00;101431.97;5024641;28;20029;-72
2022/07/05 02:33:57;;;;;;;8.85;3.03;;;;;;;13.02;100.00;101436.06;5008303;28;20057;-72
2022/07/05 02:36:24;;;;;;;11.45;3.42;;;;;;;12.97;100.00;101428.50;5024710;28;20041;-72
2022/07/05 02:38:50;;;;;;;7.47;3.33;;;;;;;12.95;100.00;101427.00;5008137;28;20037;-72
2022/07/05 02:41:16;;;;;;;6.07;2.90;;;;;;;12.87;100.00;101430.47;5024468;28;20022;-72
2022/07/05 02:43:45;;;;;;;6.57;3.13;;;;;;;12.91;100.00;101431.00;5008642;28;20272;-73
2022/07/05 02:46:11;;;;;;;;;;;;;;;12.88;100.00;101430.31;5025098;28;20493;-72
2022/07/05 02:48:38;;;;;;;6.20;3.40;;;;;;;12.85;100.00;101432.47;5024721;28;20330;-72
2022/07/05 02:51:05;;;;;;;10.40;3.22;;;;;;;12.78;100.00;101429.59;5007906;28;20028;-72
2022/07/05 02:53:32;;;;;;;8.80;3.28;;;;;;;12.71;100.00;101435.75;5007965;28;20502;-72
2022/07/05 02:55:58;;;;;;;13.13;4.38;;;;;;;12.78;100.00;101437.66;5024528;28;20580;-74
2022/07/05 02:58:23;;;;;;;11.48;3.47;;;;;;;12.81;100.00;101444.53;5022716;28;20118;-73
2022/07/05 03:00:51;;;;;;;6.63;2.88;;;;;;;12.76;100.00;101444.13;5008154;28;20025;-72
2022/07/05 03:03:19;;;;;;;9.27;3.00;;;;;;;12.77;100.00;101443.16;5024269;28;20029;-72
2022/07/05 03:05:44;;;;;;;5.27;3.20;;;;;;;12.66;100.00;101423.66;5024093;28;20009;-72
2022/07/05 03:08:10;;;;;;;7.03;2.50;;;;;;;12.66;100.00;101436.22;5007706;28;20029;-73
2022/07/05 03:10:38;;;;;;;11.90;3.15;;;;;;;12.71;100.00;101436.56;5024296;28;20024;-72
2022/07/05 03:13:05;;;;;;;9.25;3.58;;;;;;;12.71;100.00;101439.25;5023353;28;20409;-72
2022/07/05 03:15:30;;;;;;;8.53;3.93;;;;;;;12.64;100.00;101435.53;5025356;28;20013;-73
2022/07/05 03:17:56;;;;;;;;;;;;;;;12.63;100.00;101449.94;5008509;28;20501;-72
2022/07/05 03:20:24;;;;;;;6.63;3.33;;;;;;;12.55;100.00;101455.22;5023813;28;19927;-72
2022/07/05 03:22:50;;;;;;;7.50;3.88;;;;;;;12.57;100.00;101446.06;5007501;28;20029;-72
2022/07/05 03:25:20;;;;;;;8.82;2.83;;;;;;;12.56;100.00;101455.09;5022725;28;20043;-72
2022/07/05 03:27:46;;;;;;;22.05;5.75;;;;;;;12.62;100.00;101457.16;5007696;28;20036;-72
2022/07/05 03:30:12;;;;;;;8.23;3.20;;;;;;;12.60;100.00;101452.94;5023706;28;20421;-72
2022/07/05 03:32:37;;;;;;;7.72;4.03;;;;;;;12.62;100.00;101462.50;5025910;28;20499;-72
2022/07/05 03:35:05;;;;;;;8.77;2.88;;;;;;;12.66;100.00;101460.31;5024111;28;20025;-72
2022/07/05 03:37:32;;;;;;;6.78;3.08;;;;;;;12.70;100.00;101456.34;5023971;28;20039;-72
2022/07/05 03:39:58;;;;;;;7.63;2.95;;;;;;;12.62;100.00;101449.09;5023491;28;20025;-73
2022/07/05 03:42:23;;;;;;;7.00;3.30;;;;;;;12.50;100.00;101455.72;5022617;28;20179;-74
2022/07/05 03:44:49;;;;;;;6.30;3.50;;;;;;;12.63;100.00;101464.16;5007234;28;20028;-72
2022/07/05 03:47:15;;;;;;;7.10;3.30;;;;;;;12.57;100.00;101462.16;5023824;28;20037;-73
2022/07/05 03:49:42;;;;;;;8.73;3.65;;;;;;;12.66;100.00;101463.84;5023390;28;20320;-72
2022/07/05 03:52:08;;;;;;;7.87;3.33;;;;;;;12.83;100.00;101477.31;5023850;28;20037;-73
2022/07/05 03:54:33;;;;;;;7.90;2.67;;;;;;;12.95;100.00;101467.19;5038826;23;20037;-74
2022/07/05 03:57:00;;;;;;;9.70;3.42;;;;;;;13.12;100.00;101460.06;5043451;28;20033;-74
2022/07/05 03:59:26;;;;;;;7.67;3.00;;;;;;;13.22;100.00;101460.75;5043321;28;20026;-76
2022/07/05 04:01:51;;;;;;;7.83;3.03;;;;;;;13.25;100.00;101453.25;5026415;28;20037;-75
2022/07/05 04:04:18;;;;;;;12.75;3.00;;;;;;;13.22;100.00;101460.75;5019076;28;20032;-76
2022/07/05 04:06:44;;;;;;;8.47;3.20;;;;;;;13.12;100.00;101454.69;5021082;28;20382;-74
2022/07/05 04:09:09;;;;;;;10.27;2.72;;;;;;;13.21;100.00;101445.69;5020986;28;20026;-74
2022/07/05 04:11:35;;;;;;;8.00;3.30;;;;;;;13.17;100.00;101445.16;5012115;28;20045;-74
2022/07/05 04:14:00;;;;;;;9.60;3.95;;;;;;;13.09;100.00;101445.97;4996456;28;20280;-74
2022/07/05 04:16:26;;;;;;;6.18;2.92;;;;;;;13.15;100.00;101438.28;5021233;28;20042;-74
2022/07/05 04:18:52;;;;;;;13.87;3.97;;;;;;;12.98;100.00;101443.59;5006487;28;20014;-75
2022/07/05 04:21:18;;;;;;;9.35;3.63;;;;;;;13.05;100.00;101446.47;5004784;28;20037;-73
2022/07/05 04:23:43;;;;;;;5.43;3.27;;;;;;;13.18;100.00;101446.00;5021339;28;20121;-74
2022/07/05 04:26:10;;;;;;;6.15;2.97;;;;;;;13.32;100.00;101434.66;5024973;28;20034;-74
2022/07/05 04:28:39;;;;;;;15.40;4.63;;;;;;;13.37;100.00;101427.00;5024055;28;20026;-74
2022/07/05 04:31:08;;;;;;;8.57;2.83;;;;;;;13.37;100.00;101421.63;5024616;28;20044;-75
2022/07/05 04:33:39;;;;;;;7.13;3.17;;;;;;;13.58;100.00;101429.22;5024693;28;20109;-74
2022/07/05 04:36:05;;;;;;;;;;;;;;;13.71;100.00;101423.34;5025232;28;20029;-74
2022/07/05 04:38:30;;;;;;;;;;;;;;;13.81;100.00;101421.31;5025358;28;20401;-76
2022/07/05 04:40:58;;;;;;;5.85;2.83;;;;;;;13.76;100.00;101412.94;5008930;28;19917;-73
2022/07/05 04:43:25;;;;;;;11.38;3.17;;;;;;;13.90;100.00;101412.25;5024315;28;20110;-75
2022/07/05 04:45:50;;;;;;;9.60;2.43;;;;;;;14.09;100.00;101415.63;5024544;28;20113;-73
2022/07/05 04:48:16;;;;;;;16.52;4.10;;;;;;;14.12;100.00;101408.06;5024478;28;20340;-74
2022/07/05 04:50:41;;;;;;;3.83;2.47;;;;;;;14.29;100.00;101411.56;5024406;28;20034;-74
2022/07/05 04:53:07;;;;;;;8.53;2.33;;;;;;;14.21;100.00;101395.47;5024464;28;20026;-74
2022/07/05 04:55:32;;;;;;;4.97;2.67;;;;;;;14.47;100.00;101397.94;5024221;28;20046;-75
2022/07/05 04:57:58;;;;;;;4.20;2.60;;;;;;;14.68;100.00;101402.78;5024249;28;20062;-75
2022/07/05 05:00:23;;;;;;;10.10;2.20;;;;;;;14.78;100.00;101389.97;5006921;28;20049;-74
2022/07/05 05:02:48;;;;;;;10.43;2.60;;;;;;;14.87;100.00;101382.72;5008702;28;20030;-73
2022/07/05 05:05:14;;;;;;;9.10;2.27;;;;;;;14.91;100.00;101372.41;5007502;28;20088;-74
2022/07/05 05:07:44;;;;;;;5.50;2.27;;;;;;;15.13;100.00;101381.56;5024217;28;20025;-74
2022/07/05 05:10:10;;;;;;;3.88;2.00;;;;;;;15.19;100.00;101370.06;5009070;28;20590;-75
2022/07/05 05:12:35;;;;;;;;;;;;;;;15.27;100.00;101361.13;5025784;28;20036;-75
2022/07/05 05:15:01;;;;;;;;;;;;;;;15.28;100.00;101357.44;5024168;28;19913;-75
2022/07/05 05:17:43;;;;;;;11.70;2.47;;;;;;;15.35;100.00;101386.13;5023900;28;19914;-75
2022/07/05 05:20:13;;;;;;;3.83;1.88;;;;;;;15.37;100.00;101375.19;5006954;28;20042;-75
2022/07/05 05:22:39;;;;;;;7.13;2.30;;;;;;;15.53;100.00;101358.91;5008744;28;20471;-76
2022/07/05 05:25:05;;;;;;;3.03;1.92;;;;;;;15.60;100.00;101345.59;5009837;28;20022;-76
2022/07/05 05:27:30;;;;;;;7.78;2.33;;;;;;;16.13;100.00;101361.78;5008230;28;20034;-75
2022/07/05 05:29:55;;;;;;;11.00;2.30;;;;;;;16.54;100.00;101335.22;5009434;28;20014;-75
2022/07/05 05:32:21;;;;;;;5.00;2.10;;;;;;;16.53;100.00;101276.94;5023691;28;20475;-75
2022/07/05 05:34:46;;;;;;;4.53;2.00;;;;;;;16.86;100.00;101293.53;5023517;28;20018;-75
2022/07/05 05:37:12;;;;;;;7.33;2.97;;;;;;;17.18;100.00;101263.56;5022448;28;20041;-75
2022/07/05 05:39:37;;;;;;;3.80;1.60;;;;;;;17.73;100.00;101206.06;5008471;28;20026;-76
2022/07/05 05:42:03;;;;;;;4.47;1.65;;;;;;;18.51;100.00;101140.09;5023054;28;20042;-75
2022/07/05 05:44:28;;;;;;;6.65;2.17;;;;;;;17.73;100.00;101081.84;5023671;28;20101;-75
2022/07/05 05:46:54;;;;;;;11.30;3.90;;;;;;;17.39;100.00;101149.34;5025248;28;20421;-74
2022/07/05 05:49:19;;;;;;;6.20;1.53;;;;;;;16.94;100.00;101198.19;5015498;28;20033;-77
2022/07/05 05:51:44;;;;;;;9.27;1.73;;;;;;;16.45;100.00;101269.78;5009052;28;20470;-76
2022/07/05 05:54:10;;;;;;;4.70;2.00;;;;;;;16.38;100.00;101349.72;5023001;28;20026;-76
2022/07/05 05:56:35;;;;;;;5.90;1.80;;;;;;;16.36;100.00;101380.56;5008021;28;20500;-76
2022/07/05 05:59:01;;;;;;;7.40;2.23;;;;;;;16.46;100.00;101430.47;5007820;28;20076;-75
2022/07/05 06:01:26;;;;;;;5.40;2.37;;;;;;;16.49;100.00;101420.34;5007899;28;20520;-75
2022/07/05 06:03:51;;;;;;;6.13;1.53;;;;;;;16.58;100.00;101419.25;5008015;28;20076;-76
2022/07/05 06:06:17;;;;;;;9.63;2.07;;;;;;;16.80;100.00;101402.16;5008165;28;20884;-75
2022/07/05 06:08:42;;;;;;;9.47;2.40;;;;;;;17.39;100.00;101358.00;5024457;28;20036;-78
2022/07/05 06:11:08;;;;;;;6.13;2.20;;;;;;;17.70;100.00;101321.75;5024792;28;20449;-75
2022/07/05 06:13:33;;;;;;;6.33;1.83;;;;;;;18.13;100.00;101305.44;5009742;28;20040;-75
2022/07/05 06:15:59;;;;;;;4.77;1.70;;;;;;;17.73;100.00;101262.75;5009499;28;20033;-76
2022/07/05 06:18:24;;;;;;;9.48;2.97;;;;;;;17.59;100.00;101304.19;5008690;28;20061;-77
2022/07/05 06:20:50;;;;;;;4.87;1.80;;;;;;;17.29;100.00;101338.59;5007605;28;20092;-75
2022/07/05 06:23:15;;;;;;;5.27;1.90;;;;;;;16.91;100.00;101317.25;5008879;28;20478;-78
2022/07/05 06:25:40;;;;;;;5.30;1.77;;;;;;;18.08;100.00;101410.56;5023054;28;20076;-75
2022/07/05 06:28:08;;;;;;;4.27;1.80;;;;;;;18.13;100.00;101290.06;5007494;28;20022;-76
2022/07/05 06:30:35;;;;;;;5.38;1.80;;;;;;;18.42;100.00;101254.84;5022252;28;20044;-76
2022/07/05 06:33:02;;;;;;;3.13;1.65;;;;;;;18.37;100.00;101260.03;5007427;28;20018;-76
2022/07/05 06:35:27;;;;;;;7.03;2.20;;;;;;;18.08;100.00;101265.50;5008342;28;20115;-75
2022/07/05 06:37:55;;;;;;;5.25;2.03;;;;;;;17.21;100.00;101290.16;5022638;28;20483;-74
2022/07/05 06:40:23;;;;;;;7.93;2.05;;;;;;;16.93;100.00;101403.34;5020535;28;20070;-75
2022/07/05 06:42:50;;;;;;;5.68;2.17;;;;;;;17.06;100.00;101438.56;5006138;28;20022;-75
2022/07/05 06:45:16;;;;;;;4.70;1.63;;;;;;;17.32;100.00;101437.22;5005133;28;20646;-75
2022/07/05 06:47:42;;;;;;;7.43;1.77;;;;;;;17.45;100.00;101438.22;5021604;28;20032;-76
2022/07/05 06:50:08;;;;;;;6.45;1.95;;;;;;;17.65;100.00;101384.44;5006438;28;20038;-77
2022/07/05 06:52:34;;;;;;;6.40;1.35;;;;;;;17.41;100.00;101352.41;5009249;28;20088;-77
2022/07/05 06:55:00;;;;;;;8.98;2.03;;;;;;;17.59;100.00;101351.97;5024178;28;20129;-78
2022/07/05 06:57:25;;;;;;;2.63;1.20;;;;;;;17.68;100.00;101286.00;5010251;28;20030;-76
2022/07/05 06:59:51;;;;;;;8.47;1.40;;;;;;;17.76;100.00;101277.72;5022249;28;20346;-75
2022/07/05 07:02:17;;;;;;;3.78;1.20;;;;;;;18.43;100.00;101370.06;5021790;28;20120;-75
2022/07/05 07:04:42;;;;;;;3.47;1.65;;;;;;;18.72;100.00;101239.13;5005262;28;20830;-77
2022/07/05 07:09:17;;;;;;;4.40;1.15;;;;;;;18.97;100.00;101207.78;5021428;28;20050;-77
2022/07/05 07:10:01;;;;;;;4.22;1.17;;;;;;;18.47;100.00;101246.97;5004460;28;20061;-76
2022/07/05 07:12:27;;;;;;;3.90;1.35;;;;;;;18.49;100.00;101285.44;5007650;28;20120;-76
2022/07/05 07:14:52;;;;;;;9.65;1.42;;;;;;;17.93;100.00;101272.88;5020900;28;20141;-76
2022/07/05 07:17:18;;;;;;;5.43;2.73;;;;;;;17.78;100.00;101328.84;5021092;28;20165;-76
2022/07/05 07:19:43;;;;;;;5.20;1.80;;;;;;;17.27;100.00;101357.66;5020591;28;20112;-75
2022/07/05 07:22:09;;;;;;;5.80;1.20;;;;;;;17.17;100.00;101388.69;5020826;28;20044;-74
2022/07/05 07:24:34;;;;;;;15.32;2.60;;;;;;;16.93;100.00;101400.63;5021303;28;20049;-75
2022/07/05 07:27:03;;;;;;;3.23;1.30;;;;;;;17.00;100.00;101429.38;5021096;28;20061;-75
2022/07/05 07:29:29;;;;;;;3.47;1.20;;;;;;;17.16;100.00;101406.75;5005164;28;20502;-75
2022/07/05 07:31:59;;;;;;;7.30;2.08;;;;;;;17.38;100.00;101425.69;5008326;28;20460;-77
2022/07/05 07:34:25;;;;;;;6.13;1.50;;;;;;;18.27;100.00;101395.53;5020601;28;20172;-77
2022/07/05 07:36:51;;;;;;;5.20;1.42;;;;;;;18.72;100.00;101314.88;5021528;28;20035;-75
2022/07/05 07:39:16;;;;;;;3.72;1.42;;;;;;;19.47;100.00;101298.59;5022300;28;20041;-77
2022/07/05 07:41:42;;;;;;;2.00;0.90;;;;;;;19.29;100.00;101239.66;5023114;28;20030;-76
2022/07/05 07:44:07;;;;;;;5.27;1.27;;;;;;;20.64;100.00;101286.94;5021584;28;20091;-76
2022/07/05 07:46:33;;;;;;;6.50;1.50;;;;;;;20.80;100.00;101105.69;5022802;28;20120;-76
2022/07/05 07:48:58;;;;;;;4.77;1.27;;;;;;;20.31;100.00;100969.00;5005943;28;20042;-76
2022/07/05 07:51:24;;;;;;;5.95;1.48;;;;;;;20.00;100.00;100993.19;5002707;28;20125;-75
2022/07/05 07:53:50;;;;;;;2.45;1.15;;;;;;;20.13;100.00;101005.81;5021974;28;20560;-77
2022/07/05 07:56:15;;;;;;;8.17;1.73;;;;;;;19.59;100.00;101078.38;5021774;28;20087;-77
2022/07/05 07:58:41;;;;;;;6.53;1.70;;;;;;;20.62;100.00;101269.19;5005502;28;20029;-76
2022/07/05 08:01:10;;;;;;;1.70;1.10;;;;;;;21.30;100.00;101187.09;5027891;28;20037;-76
2022/07/05 08:03:40;;;;;;;3.80;1.23;;;;;;;21.57;100.00;101056.50;5011178;28;20570;-75
2022/07/05 08:06:07;;;;;;;2.78;0.98;;;;;;;22.11;100.00;101150.69;5026708;28;20034;-76
2022/07/05 08:08:34;;;;;;;7.80;1.30;;;;;;;21.00;85.45;100673.97;5027051;28;20029;-77
2022/07/05 08:10:59;;;;;;;5.20;1.10;;;;;;;19.88;99.45;100826.13;5027858;28;20065;-77
2022/07/05 08:13:25;;;;;;;1.92;0.80;;;;;;;18.88;100.00;100845.72;5027834;28;20390;-77
2022/07/05 08:15:51;;;;;;;8.47;2.67;;;;;;;18.90;100.00;101043.81;5026951;28;20022;-75
2022/07/05 08:23:44;;;;;;;2.53;1.65;;;;;;;18.62;100.00;101125.13;5011791;28;20026;-76
2022/07/05 08:26:10;;;;;;;6.17;1.43;;;;;;;18.81;100.00;101193.84;5026690;28;20489;-76
2022/07/05 08:28:35;;;;;;;5.07;1.40;;;;;;;18.19;100.00;101129.00;5026767;28;20441;-76
2022/07/05 08:31:00;;;;;;;6.07;1.30;;;;;;;17.82;100.00;101039.31;5011181;28;20037;-76
2022/07/05 08:33:26;;;;;;;4.03;0.97;;;;;;;18.28;100.00;101178.28;5011552;28;20034;-76
2022/07/05 08:35:51;;;;;;;5.43;1.10;;;;;;;19.48;100.00;101214.47;5011471;28;20018;-76
2022/07/05 08:38:16;;;;;;;2.93;1.87;;;;;;;19.65;100.00;101130.88;5012916;28;20079;-77
2022/07/05 08:40:49;;;;;;;5.63;1.20;;;;;;;19.78;100.00;101057.75;5027650;28;20030;-77
2022/07/05 08:43:16;;;;;;;7.22;1.17;;;;;;;20.84;100.00;101162.00;5027621;28;20065;-76
2022/07/05 08:45:45;;;;;;;5.13;1.27;;;;;;;21.71;92.83;101080.53;5027816;28;20014;-79
2022/07/05 08:48:11;;;;;;;3.20;1.27;;;;;;;22.38;76.86;100853.06;5011362;28;20443;-76
2022/07/05 08:50:39;;;;;;;4.43;0.90;;;;;;;22.70;74.84;100886.94;5027307;28;20014;-77
2022/07/05 08:53:05;;;;;;;3.97;0.90;;;;;;;22.27;74.10;100801.16;5011790;28;20038;-79
2022/07/05 08:55:32;;;;;;;2.00;0.70;;;;;;;21.39;71.17;100604.59;5016028;28;20480;-79
2022/07/05 08:57:58;;;;;;;4.43;0.88;;;;;;;20.70;72.87;100563.63;5013202;28;20430;-75
2022/07/05 09:00:24;;;;;;;6.35;0.90;;;;;;;20.26;78.48;100666.03;5012974;28;20029;-77
2022/07/05 09:02:50;;;;;;;6.22;1.20;;;;;;;19.69;83.88;100695.25;5026793;28;20026;-77
2022/07/05 09:05:18;;;;;;;6.00;0.95;;;;;;;19.27;90.99;100782.44;5027224;28;20495;-76
2022/07/05 09:08:16;;;;;;;3.45;1.20;;;;;;;18.83;98.74;100878.81;5010020;28;20399;-77
2022/07/05 09:10:43;;;;;;;2.95;0.80;;;;;;;18.31;100.00;100931.94;5001363;28;20823;-79
2022/07/05 09:13:08;;;;;;;;;;;;;;;18.47;100.00;101093.72;5025146;28;20025;-76
2022/07/05 09:15:34;;;;;;;;;;;;;;;18.58;100.00;101021.13;5009992;28;20405;-77
2022/07/05 09:17:59;;;;;;;4.10;0.70;;;;;;;19.03;100.00;101134.94;5024472;28;20286;-77
2022/07/05 09:20:27;;;;;;;3.50;0.80;;;;;;;19.26;93.01;100905.25;5006338;28;20069;-77
2022/07/05 09:22:55;;;;;;;3.08;0.77;;;;;;;20.18;83.96;100899.44;5023495;28;20592;-77
2022/07/05 09:25:22;;;;;;;3.80;0.70;;;;;;;19.94;73.54;100597.66;5022365;28;20088;-77
2022/07/05 09:27:53;;;;;;;2.15;0.70;;;;;;;20.06;80.08;100807.19;5020942;28;20057;-78
2022/07/05 09:30:39;;;;;;;3.28;0.60;;;;;;;19.76;83.38;100824.16;5006242;28;20033;-78
2022/07/05 09:33:12;;;;;;;5.57;1.00;;;;;;;18.71;94.01;100823.72;5008088;28;20040;-77
2022/07/05 09:35:40;;;;;;;3.30;0.95;;;;;;;17.85;100.00;100933.56;5009299;28;20022;-75
2022/07/05 09:38:16;;;;;;;2.75;1.10;;;;;;;17.71;100.00;101094.69;5009254;28;20037;-77
2022/07/05 09:40:48;;;;;;;;;;;;;;;17.44;100.00;101174.72;5008498;28;20037;-77
2022/07/05 09:43:16;;;;;;;4.70;0.77;;;;;;;17.32;100.00;101154.69;5023331;28;20386;-77
2022/07/05 09:45:59;;;;;;;3.60;1.00;;;;;;;17.32;100.00;101172.75;5023530;28;20060;-77
2022/07/05 09:48:26;;;;;;;3.22;0.93;;;;;;;17.54;100.00;101205.94;5008649;28;20025;-76
2022/07/05 09:50:52;;;;;;;3.25;1.65;;;;;;;17.86;100.00;101131.56;5022646;28;20014;-76
2022/07/05 09:53:18;;;;;;;5.10;0.83;;;;;;;19.62;100.00;101218.00;5022830;28;20476;-76
2022/07/05 09:56:01;;;;;;;3.63;0.88;;;;;;;20.63;85.61;100969.78;5023252;28;20107;-77
2022/07/05 09:58:26;;;;;;;4.97;1.55;;;;;;;21.98;83.42;101147.31;5005674;28;20117;-77
2022/07/05 10:00:52;;;;;;;3.73;0.80;;;;;;;21.56;79.01;100955.13;5006997;28;20199;-77
2022/07/05 10:03:18;;;;;;;;;;;;;;;21.10;79.14;100896.81;5022346;28;20281;-77
2022/07/05 10:05:43;;;;;;;1.92;0.75;;;;;;;19.73;83.25;100764.16;5007675;28;20258;-77
2022/07/05 10:08:10;;;;;;;5.37;0.80;;;;;;;18.96;87.48;100729.13;5007729;28;20037;-77
2022/07/05 10:10:36;;;;;;;7.43;0.80;;;;;;;19.14;100.00;101058.53;5022304;28;20032;-77
2022/07/05 10:13:04;;;;;;;3.75;0.85;;;;;;;18.52;100.00;100953.34;5023027;28;20095;-76
2022/07/05 10:15:31;;;;;;;3.90;1.10;;;;;;;18.53;100.00;101009.06;4999497;28;20022;-77
2022/07/05 10:18:02;;;;;;;3.05;0.80;;;;;;;18.92;100.00;101155.34;5022859;28;20125;-76
2022/07/05 10:20:42;;;;;;;3.83;1.10;;;;;;;19.15;100.00;101233.41;5007114;28;20080;-77
2022/07/05 10:23:18;;;;;;;2.60;1.00;;;;;;;20.10;100.00;101230.41;5005674;28;20063;-77
2022/07/05 10:25:48;;;;;;;1.77;0.88;;;;;;;20.93;100.00;101292.00;5007652;28;20040;-76
2022/07/05 10:28:14;;;;;;;4.28;0.80;;;;;;;21.39;94.06;101234.63;5022497;28;20105;-77
2022/07/05 10:30:40;;;;;;;2.35;0.90;;;;;;;21.44;89.63;101160.66;5007088;28;20022;-77
2022/07/05 10:33:07;;;;;;;2.55;0.90;;;;;;;22.08;79.81;101066.06;5022393;28;20037;-78
2022/07/05 10:35:33;;;;;;;4.47;1.10;;;;;;;20.69;73.35;100664.22;5007193;28;20496;-76
2022/07/05 10:38:00;;;;;;;4.13;0.80;;;;;;;20.60;79.57;100857.16;5007171;28;20045;-77
2022/07/05 10:40:26;;;;;;;5.40;0.82;;;;;;;20.13;79.39;100761.88;5021902;28;20022;-77
2022/07/05 10:42:56;;;;;;;2.72;1.02;;;;;;;21.65;75.84;100983.63;5022545;28;20033;-77
2022/07/05 10:45:21;;;;;;;5.15;1.23;;;;;;;22.14;76.19;101084.97;5006883;28;20422;-78
2022/07/05 10:48:09;;;;;;;4.40;0.80;;;;;;;21.49;71.25;100808.56;5007171;28;20033;-77
2022/07/05 10:50:51;;;;;;;3.10;0.73;;;;;;;20.85;72.92;100750.38;5014218;28;20034;-77
2022/07/05 10:53:19;;;;;;;3.58;0.65;;;;;;;20.65;76.90;100826.63;5005663;28;20483;-77
2022/07/05 10:55:59;;;;;;;3.42;0.85;;;;;;;20.01;80.08;100774.53;5006381;28;20018;-78
2022/07/05 10:59:04;;;;;;;2.60;0.65;;;;;;;19.87;88.54;100949.09;5022149;28;20041;-77
2022/07/05 11:01:34;;;;;;;2.58;0.77;;;;;;;19.14;86.16;100775.22;4973375;28;20443;-77
2022/07/05 11:04:02;;;;;;;4.40;1.10;;;;;;;19.48;90.18;100940.13;5008291;28;20145;-78
2022/07/05 11:06:30;;;;;;;1.80;0.65;;;;;;;19.50;89.93;100943.47;5022059;28;20095;-77
2022/07/05 11:09:05;;;;;;;2.13;0.70;;;;;;;20.16;85.88;101002.69;5006560;28;20563;-78
2022/07/05 11:11:31;;;;;;;1.48;0.70;;;;;;;20.89;77.54;100957.00;4997403;28;20041;-78
2022/07/05 11:13:58;;;;;;;2.40;0.73;;;;;;;20.81;78.84;100922.84;5013658;28;20024;-77
2022/07/05 11:16:35;;;;;;;2.17;0.70;;;;;;;20.82;88.20;101114.44;5006418;28;20044;-78
2022/07/05 11:19:04;;;;;;;2.72;0.90;;;;;;;21.04;75.99;100886.88;5006397;28;20084;-78
2022/07/05 11:21:30;;;;;;;1.58;0.68;;;;;;;20.94;81.49;101012.25;5013688;28;20036;-77
2022/07/05 11:24:20;;;;;;;8.80;1.17;;;;;;;21.14;75.85;100906.16;5006365;28;20113;-77
2022/07/05 11:26:48;;;;;;;3.28;0.93;;;;;;;21.03;75.58;100880.63;5000779;28;20034;-77